sensor_id;sensor_type;location;lat;lon;timestamp;temperature;humidity
45953;DHT22;31662;52.262;10.522;2023-08-06T14:46:30;23.70;85.60
45953;DHT22;31662;52.262;10.522;2023-08-06T14:48:56;23.30;86.50
45953;DHT22;31662;52.262;10.522;2023-08-06T14:51:21;23.20;86.90
45953;DHT22;31662;52.262;10.522;2023-08-06T14:53:47;23.20;87.40
45953;DHT22;31662;52.262;10.522;2023-08-06T14:56:13;23.20;87.60
45953;DHT22;31662;52.262;10.522;2023-08-06T14:58:38;23.40;86.90
45953;DHT22;31662;52.262;10.522;2023-08-06T15:01:04;23.70;86.40
45953;DHT22;31662;52.262;10.522;2023-08-06T15:03:29;23.80;84.90
45953;DHT22;31662;52.262;10.522;2023-08-06T15:05:56;23.80;84.90
45953;DHT22;31662;52.262;10.522;2023-08-06T15:08:22;23.70;85.40
45953;DHT22;31662;52.262;10.522;2023-08-06T15:10:51;23.60;85.70
45953;DHT22;31662;52.262;10.522;2023-08-06T15:13:18;23.50;85.30
45953;DHT22;31662;52.262;10.522;2023-08-06T15:15:45;23.50;85.30
45953;DHT22;31662;52.262;10.522;2023-08-06T15:18:11;23.40;86.10
45953;DHT22;31662;52.262;10.522;2023-08-06T15:20:37;23.20;87.10
45953;DHT22;31662;52.262;10.522;2023-08-06T15:23:02;23.00;87.80
45953;DHT22;31662;52.262;10.522;2023-08-06T15:25:28;22.90;88.70
45953;DHT22;31662;52.262;10.522;2023-08-06T15:27:53;22.90;89.40
45953;DHT22;31662;52.262;10.522;2023-08-06T15:30:19;22.80;89.20
45953;DHT22;31662;52.262;10.522;2023-08-06T15:32:46;22.70;89.50
45953;DHT22;31662;52.262;10.522;2023-08-06T15:35:12;22.60;89.10
45953;DHT22;31662;52.262;10.522;2023-08-06T15:37:38;22.50;89.60
45953;DHT22;31662;52.262;10.522;2023-08-06T15:40:05;22.50;89.10
45953;DHT22;31662;52.262;10.522;2023-08-06T15:42:30;22.50;89.30
45953;DHT22;31662;52.262;10.522;2023-08-06T15:44:56;22.50;89.70
45953;DHT22;31662;52.262;10.522;2023-08-06T15:47:22;22.50;89.80
45953;DHT22;31662;52.262;10.522;2023-08-06T15:49:47;22.50;90.00
45953;DHT22;31662;52.262;10.522;2023-08-06T15:52:13;22.40;90.20
45953;DHT22;31662;52.262;10.522;2023-08-06T15:54:38;22.30;90.40
45953;DHT22;31662;52.262;10.522;2023-08-06T15:57:04;22.30;90.60
45953;DHT22;31662;52.262;10.522;2023-08-06T15:59:31;22.30;90.50
45953;DHT22;31662;52.262;10.522;2023-08-06T16:01:58;22.20;90.50
45953;DHT22;31662;52.262;10.522;2023-08-06T16:04:25;22.10;90.60
45953;DHT22;31662;52.262;10.522;2023-08-06T16:06:51;22.00;91.00
45953;DHT22;31662;52.262;10.522;2023-08-06T16:09:17;22.10;91.00
45953;DHT22;31662;52.262;10.522;2023-08-06T16:11:44;22.10;91.30
45953;DHT22;31662;52.262;10.522;2023-08-06T16:14:09;22.00;91.00
45953;DHT22;31662;52.262;10.522;2023-08-06T16:16:35;21.90;91.20
45953;DHT22;31662;52.262;10.522;2023-08-06T16:19:02;21.90;91.30
45953;DHT22;31662;52.262;10.522;2023-08-06T16:21:28;21.90;91.50
45953;DHT22;31662;52.262;10.522;2023-08-06T16:23:53;21.90;91.30
45953;DHT22;31662;52.262;10.522;2023-08-06T16:26:19;22.10;90.90
45953;DHT22;31662;52.262;10.522;2023-08-06T16:28:44;22.20;90.70
45953;DHT22;31662;52.262;10.522;2023-08-06T16:31:10;22.20;90.60
45953;DHT22;31662;52.262;10.522;2023-08-06T16:33:36;22.20;90.50
45953;DHT22;31662;52.262;10.522;2023-08-06T16:36:05;22.30;90.40
45953;DHT22;31662;52.262;10.522;2023-08-06T16:38:31;22.30;90.20
45953;DHT22;31662;52.262;10.522;2023-08-06T16:40:57;22.40;89.80
45953;DHT22;31662;52.262;10.522;2023-08-06T16:43:23;22.30;90.10
45953;DHT22;31662;52.262;10.522;2023-08-06T16:45:49;22.30;89.90
45953;DHT22;31662;52.262;10.522;2023-08-06T16:48:15;22.30;90.00
45953;DHT22;31662;52.262;10.522;2023-08-06T16:50:40;22.20;90.20
45953;DHT22;31662;52.262;10.522;2023-08-06T16:53:07;22.10;89.90
45953;DHT22;31662;52.262;10.522;2023-08-06T16:55:32;22.10;90.00
45953;DHT22;31662;52.262;10.522;2023-08-06T16:57:58;22.00;90.30
45953;DHT22;31662;52.262;10.522;2023-08-06T17:00:24;21.90;90.40
45953;DHT22;31662;52.262;10.522;2023-08-06T17:02:49;21.80;90.30
45953;DHT22;31662;52.262;10.522;2023-08-06T17:05:15;21.80;90.50
45953;DHT22;31662;52.262;10.522;2023-08-06T17:07:41;21.70;90.40
45953;DHT22;31662;52.262;10.522;2023-08-06T17:10:09;21.60;90.50
45953;DHT22;31662;52.262;10.522;2023-08-06T17:12:35;21.60;90.40
45953;DHT22;31662;52.262;10.522;2023-08-06T17:15:01;21.50;90.10
45953;DHT22;31662;52.262;10.522;2023-08-06T17:17:27;21.50;90.20
45953;DHT22;31662;52.262;10.522;2023-08-06T17:19:52;21.40;90.30
45953;DHT22;31662;52.262;10.522;2023-08-06T17:22:18;21.40;90.20
45953;DHT22;31662;52.262;10.522;2023-08-06T17:24:43;21.30;90.50
45953;DHT22;31662;52.262;10.522;2023-08-06T17:27:09;21.30;90.50
45953;DHT22;31662;52.262;10.522;2023-08-06T17:29:34;21.30;90.50
45953;DHT22;31662;52.262;10.522;2023-08-06T17:32:00;21.30;90.50
45953;DHT22;31662;52.262;10.522;2023-08-06T17:34:25;21.40;90.40
45953;DHT22;31662;52.262;10.522;2023-08-06T17:36:53;21.50;90.50
45953;DHT22;31662;52.262;10.522;2023-08-06T17:39:18;21.40;91.20
45953;DHT22;31662;52.262;10.522;2023-08-06T17:41:44;21.40;91.70
45953;DHT22;31662;52.262;10.522;2023-08-06T17:44:09;21.30;92.30
45953;DHT22;31662;52.262;10.522;2023-08-06T17:46:36;21.20;92.80
45953;DHT22;31662;52.262;10.522;2023-08-06T17:49:02;21.10;92.80
45953;DHT22;31662;52.262;10.522;2023-08-06T17:51:27;21.00;93.20
45953;DHT22;31662;52.262;10.522;2023-08-06T17:53:53;20.90;93.30
45953;DHT22;31662;52.262;10.522;2023-08-06T17:56:18;20.90;94.00
45953;DHT22;31662;52.262;10.522;2023-08-06T17:58:44;20.80;94.00
45953;DHT22;31662;52.262;10.522;2023-08-06T18:01:09;20.70;94.20
45953;DHT22;31662;52.262;10.522;2023-08-06T18:03:35;20.70;94.60
45953;DHT22;31662;52.262;10.522;2023-08-06T18:06:00;20.70;94.70
45953;DHT22;31662;52.262;10.522;2023-08-06T18:08:26;20.70;95.20
45953;DHT22;31662;52.262;10.522;2023-08-06T18:10:52;20.60;95.40
45953;DHT22;31662;52.262;10.522;2023-08-06T18:13:18;20.50;95.40
45953;DHT22;31662;52.262;10.522;2023-08-06T18:15:44;20.60;95.60
45953;DHT22;31662;52.262;10.522;2023-08-06T18:18:10;20.60;95.70
45953;DHT22;31662;52.262;10.522;2023-08-06T18:20:36;20.60;95.90
45953;DHT22;31662;52.262;10.522;2023-08-06T18:23:01;20.60;95.90
45953;DHT22;31662;52.262;10.522;2023-08-06T18:25:28;20.50;96.10
45953;DHT22;31662;52.262;10.522;2023-08-06T18:27:53;20.50;95.90
45953;DHT22;31662;52.262;10.522;2023-08-06T18:30:19;20.50;96.10
45953;DHT22;31662;52.262;10.522;2023-08-06T18:32:45;20.40;95.90
45953;DHT22;31662;52.262;10.522;2023-08-06T18:35:11;20.30;96.10
45953;DHT22;31662;52.262;10.522;2023-08-06T18:37:37;20.20;96.30
45953;DHT22;31662;52.262;10.522;2023-08-06T18:40:06;20.10;96.50
45953;DHT22;31662;52.262;10.522;2023-08-06T18:42:32;20.10;96.50
45953;DHT22;31662;52.262;10.522;2023-08-06T18:44:57;20.10;96.60
45953;DHT22;31662;52.262;10.522;2023-08-06T18:47:24;20.00;96.50
45953;DHT22;31662;52.262;10.522;2023-08-06T18:49:50;19.90;96.80
45953;DHT22;31662;52.262;10.522;2023-08-06T18:54:51;19.80;97.00
45953;DHT22;31662;52.262;10.522;2023-08-06T18:57:17;19.70;97.20
45953;DHT22;31662;52.262;10.522;2023-08-06T18:59:44;19.70;97.20
45953;DHT22;31662;52.262;10.522;2023-08-06T19:02:09;19.70;97.30
45953;DHT22;31662;52.262;10.522;2023-08-06T19:04:35;19.60;97.30
45953;DHT22;31662;52.262;10.522;2023-08-06T19:07:01;19.60;97.30
45953;DHT22;31662;52.262;10.522;2023-08-06T19:09:26;19.50;97.40
45953;DHT22;31662;52.262;10.522;2023-08-06T19:11:52;19.40;97.60
45953;DHT22;31662;52.262;10.522;2023-08-06T19:14:17;19.40;97.80
45953;DHT22;31662;52.262;10.522;2023-08-06T19:16:44;19.20;98.00
45953;DHT22;31662;52.262;10.522;2023-08-06T19:19:15;19.20;98.30
45953;DHT22;31662;52.262;10.522;2023-08-06T19:21:45;19.10;98.40
45953;DHT22;31662;52.262;10.522;2023-08-06T19:24:13;19.00;98.60
45953;DHT22;31662;52.262;10.522;2023-08-06T19:26:38;19.00;98.90
45953;DHT22;31662;52.262;10.522;2023-08-06T19:29:04;19.00;99.10
45953;DHT22;31662;52.262;10.522;2023-08-06T19:31:30;18.90;98.90
45953;DHT22;31662;52.262;10.522;2023-08-06T19:33:55;18.80;99.40
45953;DHT22;31662;52.262;10.522;2023-08-06T19:36:21;18.80;99.40
45953;DHT22;31662;52.262;10.522;2023-08-06T19:38:46;18.80;99.90
45953;DHT22;31662;52.262;10.522;2023-08-06T19:41:28;18.70;99.80
45953;DHT22;31662;52.262;10.522;2023-08-06T19:44:03;18.60;99.90
45953;DHT22;31662;52.262;10.522;2023-08-06T19:46:28;18.60;99.90
45953;DHT22;31662;52.262;10.522;2023-08-06T19:48:54;18.60;99.90
45953;DHT22;31662;52.262;10.522;2023-08-06T19:51:20;18.60;99.90
45953;DHT22;31662;52.262;10.522;2023-08-06T19:53:45;18.60;99.90
45953;DHT22;31662;52.262;10.522;2023-08-06T19:56:13;18.60;99.90
45953;DHT22;31662;52.262;10.522;2023-08-06T19:58:39;18.50;99.90
45953;DHT22;31662;52.262;10.522;2023-08-06T20:01:04;18.60;99.90
45953;DHT22;31662;52.262;10.522;2023-08-06T20:03:31;18.50;99.90
45953;DHT22;31662;52.262;10.522;2023-08-06T20:06:00;18.50;99.90
45953;DHT22;31662;52.262;10.522;2023-08-06T20:08:26;18.40;99.90
45953;DHT22;31662;52.262;10.522;2023-08-06T20:10:51;18.40;99.90
45953;DHT22;31662;52.262;10.522;2023-08-06T20:13:19;18.30;99.90
45953;DHT22;31662;52.262;10.522;2023-08-06T20:15:50;18.20;99.90
45953;DHT22;31662;52.262;10.522;2023-08-06T20:18:16;18.10;99.90
45953;DHT22;31662;52.262;10.522;2023-08-06T20:20:43;18.10;99.90
45953;DHT22;31662;52.262;10.522;2023-08-06T20:23:08;18.00;99.90
45953;DHT22;31662;52.262;10.522;2023-08-06T20:25:34;18.00;99.90
45953;DHT22;31662;52.262;10.522;2023-08-06T20:28:00;17.90;99.90
45953;DHT22;31662;52.262;10.522;2023-08-06T20:30:26;17.90;99.90
45953;DHT22;31662;52.262;10.522;2023-08-06T20:32:51;17.90;99.90
45953;DHT22;31662;52.262;10.522;2023-08-06T20:35:17;17.90;99.90
45953;DHT22;31662;52.262;10.522;2023-08-06T20:37:43;17.80;99.90
45953;DHT22;31662;52.262;10.522;2023-08-06T20:40:09;17.70;99.90
45953;DHT22;31662;52.262;10.522;2023-08-06T20:42:34;17.70;99.90
45953;DHT22;31662;52.262;10.522;2023-08-06T20:45:00;17.70;99.90
45953;DHT22;31662;52.262;10.522;2023-08-06T20:47:26;17.50;99.90
45953;DHT22;31662;52.262;10.522;2023-08-06T20:49:51;17.50;99.90
45953;DHT22;31662;52.262;10.522;2023-08-06T20:52:17;17.40;99.90
45953;DHT22;31662;52.262;10.522;2023-08-06T20:54:42;17.30;99.90
45953;DHT22;31662;52.262;10.522;2023-08-06T20:57:08;17.30;99.90
45953;DHT22;31662;52.262;10.522;2023-08-06T20:59:34;17.20;99.90
45953;DHT22;31662;52.262;10.522;2023-08-06T21:01:59;17.10;99.90
45953;DHT22;31662;52.262;10.522;2023-08-06T21:04:25;17.10;99.90
45953;DHT22;31662;52.262;10.522;2023-08-06T21:06:50;17.10;99.90
45953;DHT22;31662;52.262;10.522;2023-08-06T21:09:16;17.10;99.90
45953;DHT22;31662;52.262;10.522;2023-08-06T21:11:41;17.10;99.90
45953;DHT22;31662;52.262;10.522;2023-08-06T21:14:07;17.10;99.90
45953;DHT22;31662;52.262;10.522;2023-08-06T21:16:32;17.10;99.90
45953;DHT22;31662;52.262;10.522;2023-08-06T21:18:58;17.00;99.90
45953;DHT22;31662;52.262;10.522;2023-08-06T21:21:24;17.00;99.90
45953;DHT22;31662;52.262;10.522;2023-08-06T21:23:49;17.00;99.90
45953;DHT22;31662;52.262;10.522;2023-08-06T21:26:15;17.10;99.90
45953;DHT22;31662;52.262;10.522;2023-08-06T21:28:42;17.00;99.90
45953;DHT22;31662;52.262;10.522;2023-08-06T21:31:09;17.00;99.90
45953;DHT22;31662;52.262;10.522;2023-08-06T21:33:36;17.00;99.90
45953;DHT22;31662;52.262;10.522;2023-08-06T21:36:03;16.90;99.90
45953;DHT22;31662;52.262;10.522;2023-08-06T21:38:34;16.80;99.90
45953;DHT22;31662;52.262;10.522;2023-08-06T21:41:07;16.80;99.90
45953;DHT22;31662;52.262;10.522;2023-08-06T21:43:33;16.80;99.90
45953;DHT22;31662;52.262;10.522;2023-08-06T21:46:03;16.80;99.90
45953;DHT22;31662;52.262;10.522;2023-08-06T21:48:30;16.80;99.90
45953;DHT22;31662;52.262;10.522;2023-08-06T21:51:00;16.70;99.90
45953;DHT22;31662;52.262;10.522;2023-08-06T21:53:26;16.70;99.90
45953;DHT22;31662;52.262;10.522;2023-08-06T21:55:56;16.70;99.90
45953;DHT22;31662;52.262;10.522;2023-08-06T21:58:22;16.70;99.90
45953;DHT22;31662;52.262;10.522;2023-08-06T22:00:47;16.70;99.90
45953;DHT22;31662;52.262;10.522;2023-08-06T22:03:13;16.70;99.90
45953;DHT22;31662;52.262;10.522;2023-08-06T22:05:38;16.70;99.90
45953;DHT22;31662;52.262;10.522;2023-08-06T22:08:04;16.70;99.90
45953;DHT22;31662;52.262;10.522;2023-08-06T22:10:29;16.70;99.90
45953;DHT22;31662;52.262;10.522;2023-08-06T22:12:55;16.70;99.90
45953;DHT22;31662;52.262;10.522;2023-08-06T22:15:20;16.60;99.90
45953;DHT22;31662;52.262;10.522;2023-08-06T22:17:46;16.60;99.90
45953;DHT22;31662;52.262;10.522;2023-08-06T22:20:11;16.60;99.90
45953;DHT22;31662;52.262;10.522;2023-08-06T22:22:37;16.50;99.90
45953;DHT22;31662;52.262;10.522;2023-08-06T22:25:05;16.50;99.90
45953;DHT22;31662;52.262;10.522;2023-08-06T22:27:31;16.60;99.90
45953;DHT22;31662;52.262;10.522;2023-08-06T22:29:56;16.60;99.90
45953;DHT22;31662;52.262;10.522;2023-08-06T22:32:22;16.60;99.90
45953;DHT22;31662;52.262;10.522;2023-08-06T22:34:47;16.60;99.90
45953;DHT22;31662;52.262;10.522;2023-08-06T22:37:13;16.60;99.90
45953;DHT22;31662;52.262;10.522;2023-08-06T22:39:38;16.50;99.90
45953;DHT22;31662;52.262;10.522;2023-08-06T22:42:04;16.50;99.90
45953;DHT22;31662;52.262;10.522;2023-08-06T22:44:29;16.50;99.90
45953;DHT22;31662;52.262;10.522;2023-08-06T22:46:55;16.60;99.90
45953;DHT22;31662;52.262;10.522;2023-08-06T22:49:21;16.60;99.90
45953;DHT22;31662;52.262;10.522;2023-08-06T22:51:46;16.60;99.90
45953;DHT22;31662;52.262;10.522;2023-08-06T22:54:12;16.50;99.90
45953;DHT22;31662;52.262;10.522;2023-08-06T22:56:37;16.50;99.90
45953;DHT22;31662;52.262;10.522;2023-08-06T22:59:03;16.50;99.90
45953;DHT22;31662;52.262;10.522;2023-08-06T23:01:28;16.60;99.90
45953;DHT22;31662;52.262;10.522;2023-08-06T23:03:54;16.50;99.90
45953;DHT22;31662;52.262;10.522;2023-08-06T23:06:19;16.50;99.90
45953;DHT22;31662;52.262;10.522;2023-08-06T23:08:45;16.50;99.90
45953;DHT22;31662;52.262;10.522;2023-08-06T23:11:10;16.50;99.90
45953;DHT22;31662;52.262;10.522;2023-08-06T23:13:36;16.40;99.90
45953;DHT22;31662;52.262;10.522;2023-08-06T23:16:01;16.40;99.90
45953;DHT22;31662;52.262;10.522;2023-08-06T23:18:27;16.40;99.90
45953;DHT22;31662;52.262;10.522;2023-08-06T23:20:53;16.40;99.90
45953;DHT22;31662;52.262;10.522;2023-08-06T23:23:18;16.30;99.90
45953;DHT22;31662;52.262;10.522;2023-08-06T23:25:44;16.30;99.90
45953;DHT22;31662;52.262;10.522;2023-08-06T23:28:09;16.30;99.90
45953;DHT22;31662;52.262;10.522;2023-08-06T23:30:35;16.30;99.90
45953;DHT22;31662;52.262;10.522;2023-08-06T23:33:00;16.20;99.90
45953;DHT22;31662;52.262;10.522;2023-08-06T23:35:26;16.20;99.90
45953;DHT22;31662;52.262;10.522;2023-08-06T23:37:51;16.20;99.90
45953;DHT22;31662;52.262;10.522;2023-08-06T23:40:17;16.20;99.90
45953;DHT22;31662;52.262;10.522;2023-08-06T23:42:43;16.20;99.90
45953;DHT22;31662;52.262;10.522;2023-08-06T23:45:09;16.20;99.90
45953;DHT22;31662;52.262;10.522;2023-08-06T23:47:35;16.20;99.90
45953;DHT22;31662;52.262;10.522;2023-08-06T23:50:00;16.20;99.90
45953;DHT22;31662;52.262;10.522;2023-08-06T23:52:26;16.20;99.90
45953;DHT22;31662;52.262;10.522;2023-08-06T23:54:51;16.20;99.90
45953;DHT22;31662;52.262;10.522;2023-08-06T23:57:17;16.20;99.90
45953;DHT22;31662;52.262;10.522;2023-08-06T23:59:43;16.10;99.90
